createdAt,value
2024-01-20T00:00:55.446Z,-0.20
2024-01-20T00:04:56.939Z,-0.30
2024-01-20T00:08:59.678Z,-0.30
2024-01-20T00:13:01.185Z,-0.30
2024-01-20T00:17:09.239Z,-0.30
2024-01-20T00:21:06.190Z,-0.30
2024-01-20T00:25:09.301Z,-0.30
2024-01-20T00:29:11.886Z,-0.30
2024-01-20T00:33:13.351Z,-0.30
2024-01-20T00:37:14.957Z,-0.20
2024-01-20T00:41:18.564Z,-0.20
2024-01-20T00:45:19.556Z,-0.20
2024-01-20T00:49:20.889Z,-0.60
2024-01-20T00:53:22.304Z,-0.60
2024-01-20T00:57:23.544Z,-0.50
2024-01-20T01:01:24.990Z,-0.50
2024-01-20T01:05:26.420Z,-0.50
2024-01-20T01:09:28.528Z,-0.40
2024-01-20T01:13:29.920Z,-0.50
2024-01-20T01:17:31.317Z,-0.60
2024-01-20T01:21:32.785Z,-0.60
2024-01-20T01:25:34.270Z,-0.60
2024-01-20T01:29:35.632Z,-0.60
2024-01-20T01:33:37.006Z,-0.70
2024-01-20T01:37:38.757Z,-0.60
2024-01-20T01:41:40.415Z,-0.60
2024-01-20T01:45:42.115Z,-0.60
2024-01-20T01:49:44.023Z,-0.60
2024-01-20T01:53:45.786Z,-0.60
2024-01-20T01:57:47.385Z,-0.60
2024-01-20T02:01:48.679Z,-0.50
2024-01-20T02:05:50.046Z,-0.60
2024-01-20T02:09:51.424Z,-0.60
2024-01-20T02:13:54.428Z,-1.20
2024-01-20T02:17:56.340Z,-1.30
2024-01-20T02:21:59.101Z,-1.20
2024-01-20T02:26:01.306Z,-0.90
2024-01-20T02:30:03.286Z,-0.90
2024-01-20T02:34:04.694Z,-0.90
2024-01-20T02:38:06.389Z,-0.90
2024-01-20T02:42:08.918Z,-0.70
2024-01-20T02:46:10.186Z,-0.50
2024-01-20T02:50:11.523Z,-0.50
2024-01-20T02:54:12.901Z,-0.50
2024-01-20T02:58:14.272Z,-0.50
2024-01-20T03:02:15.661Z,-0.30
2024-01-20T03:06:16.988Z,-0.30
2024-01-20T03:10:18.408Z,-0.30
2024-01-20T03:14:19.752Z,-0.50
2024-01-20T03:18:21.214Z,-0.40
2024-01-20T03:22:22.554Z,-0.50
2024-01-20T03:26:23.884Z,-0.40
2024-01-20T03:30:25.225Z,-0.40
2024-01-20T03:34:26.804Z,-0.30
2024-01-20T03:38:28.412Z,-0.30
2024-01-20T03:42:29.856Z,-0.30
2024-01-20T03:46:31.225Z,-0.30
2024-01-20T03:50:32.639Z,-0.30
2024-01-20T03:54:34.111Z,-0.30
2024-01-20T03:58:37.318Z,-0.20
2024-01-20T04:02:38.644Z,-0.40
2024-01-20T04:06:40.017Z,-0.30
2024-01-20T04:10:41.491Z,-0.40
2024-01-20T04:14:42.891Z,-0.20
2024-01-20T04:18:44.646Z,-0.20
2024-01-20T04:22:46.023Z,-0.30
2024-01-20T04:26:47.421Z,-0.50
2024-01-20T04:30:48.769Z,-0.30
2024-01-20T04:34:50.172Z,-0.20
2024-01-20T04:38:51.513Z,-0.20
2024-01-20T04:42:52.853Z,-0.10
2024-01-20T04:46:54.153Z,-0.20
2024-01-20T04:50:55.535Z,-0.20
2024-01-20T04:54:56.866Z,-0.10
2024-01-20T04:58:58.236Z,-0.10
2024-01-20T05:02:59.554Z,0.00
2024-01-20T05:07:00.942Z,-0.10
2024-01-20T05:11:02.318Z,-0.20
2024-01-20T05:15:06.529Z,-0.30
2024-01-20T05:19:07.979Z,-0.20
2024-01-20T05:23:09.728Z,-0.50
2024-01-20T05:27:12.268Z,-0.80
2024-01-20T05:31:13.684Z,-1.10
2024-01-20T05:35:15.341Z,-1.20
2024-01-20T05:39:16.734Z,-1.00
2024-01-20T05:43:18.032Z,-0.90
2024-01-20T05:47:19.389Z,-0.80
2024-01-20T05:51:20.863Z,-0.70
2024-01-20T05:55:22.155Z,-0.70
2024-01-20T05:59:23.496Z,-0.90
2024-01-20T06:03:27.975Z,-0.60
2024-01-20T06:07:29.638Z,-0.60
2024-01-20T06:11:31.129Z,-0.40
2024-01-20T06:15:33.198Z,-0.40
2024-01-20T06:19:34.909Z,-0.30
2024-01-20T06:23:37.449Z,-0.40
2024-01-20T06:27:38.952Z,-0.60
2024-01-20T06:31:40.293Z,-0.50
2024-01-20T06:35:41.688Z,-0.50
2024-01-20T06:39:43.066Z,-0.50
2024-01-20T06:43:44.750Z,-0.60
2024-01-20T06:47:46.189Z,-0.70
2024-01-20T06:51:48.545Z,-0.60
2024-01-20T06:55:50.434Z,-0.40
2024-01-20T06:59:51.975Z,-0.50
2024-01-20T07:03:53.418Z,-0.40
2024-01-20T07:07:54.801Z,-0.40
2024-01-20T07:11:58.120Z,-0.40
2024-01-20T07:16:00.475Z,-0.50
2024-01-20T07:20:01.914Z,-0.30
2024-01-20T07:24:05.396Z,-0.40
2024-01-20T07:28:07.176Z,-0.40
2024-01-20T07:32:08.724Z,-0.40
2024-01-20T07:36:10.113Z,-0.30
2024-01-20T07:40:12.184Z,-0.40
2024-01-20T07:44:13.609Z,-0.40
2024-01-20T07:48:15.569Z,-0.40
2024-01-20T07:52:17.310Z,-0.40
2024-01-20T07:56:18.665Z,-0.60
2024-01-20T08:00:20.232Z,-0.50
2024-01-20T08:04:23.097Z,-0.40
2024-01-20T08:08:26.872Z,-0.30
2024-01-20T08:12:29.352Z,-0.20
2024-01-20T08:16:31.954Z,-0.20
2024-01-20T08:20:33.286Z,-0.10
2024-01-20T08:24:34.781Z,-0.10
2024-01-20T08:28:36.233Z,0.70
2024-01-20T08:32:40.238Z,0.60
2024-01-20T08:36:42.073Z,0.60
2024-01-20T08:40:43.758Z,0.50
2024-01-20T08:44:45.735Z,0.30
2024-01-20T08:48:47.224Z,0.00
2024-01-20T08:52:48.761Z,-0.20
2024-01-20T08:56:50.392Z,-0.20
2024-01-20T09:00:51.914Z,0.00
2024-01-20T09:04:53.822Z,0.20
2024-01-20T09:08:56.013Z,0.30
2024-01-20T09:12:57.994Z,0.50
2024-01-20T09:17:00.673Z,0.50
2024-01-20T09:21:02.298Z,0.50
2024-01-20T09:25:04.278Z,0.60
2024-01-20T09:29:06.039Z,0.70
2024-01-20T09:33:08.013Z,0.60
2024-01-20T09:37:12.046Z,0.60
2024-01-20T09:41:13.144Z,0.90
2024-01-20T09:45:15.014Z,1.00
2024-01-20T09:49:16.723Z,0.70
2024-01-20T09:53:18.363Z,0.70
2024-01-20T09:57:21.533Z,0.30
2024-01-20T10:01:23.514Z,0.50
2024-01-20T10:05:25.174Z,0.40
2024-01-20T10:09:28.624Z,0.30
2024-01-20T10:13:30.434Z,0.60
2024-01-20T10:17:38.595Z,0.90
2024-01-20T10:21:41.381Z,1.00
2024-01-20T10:25:43.392Z,0.80
2024-01-20T10:29:49.176Z,0.40
2024-01-20T10:33:53.356Z,0.60
2024-01-20T10:37:58.760Z,0.30
2024-01-20T10:42:02.178Z,0.90
2024-01-20T10:46:13.498Z,1.00
2024-01-20T10:50:17.367Z,1.00
2024-01-20T10:54:20.283Z,0.80
2024-01-20T10:58:36.826Z,1.10
2024-01-20T11:02:39.368Z,1.00
2024-01-20T11:06:41.410Z,0.80
2024-01-20T11:10:46.167Z,1.20
2024-01-20T11:14:50.822Z,1.60
2024-01-20T11:18:52.271Z,2.00
2024-01-20T11:22:55.505Z,2.30
2024-01-20T11:27:01.140Z,2.30
2024-01-20T11:31:03.848Z,2.50
2024-01-20T11:35:06.321Z,2.30
2024-01-20T11:39:07.786Z,2.30
2024-01-20T11:43:12.118Z,2.50
2024-01-20T11:47:14.043Z,2.50
2024-01-20T11:51:16.772Z,2.60
2024-01-20T11:55:18.297Z,2.30
2024-01-20T11:59:19.828Z,2.30
2024-01-20T12:03:23.844Z,2.50
2024-01-20T12:07:25.778Z,2.60
2024-01-20T12:11:28.548Z,2.70
2024-01-20T12:15:35.949Z,2.50
2024-01-20T12:19:41.340Z,2.60
2024-01-20T12:23:42.780Z,2.60
2024-01-20T12:27:45.348Z,2.70
2024-01-20T12:31:46.728Z,2.70
2024-01-20T12:35:48.228Z,1.70
2024-01-20T12:39:51.971Z,1.70
2024-01-20T12:43:53.907Z,2.10
2024-01-20T12:47:55.857Z,2.10
2024-01-20T12:51:57.854Z,2.00
2024-01-20T12:56:00.057Z,2.10
2024-01-20T13:00:02.723Z,2.30
2024-01-20T13:04:04.092Z,2.30
2024-01-20T13:08:06.193Z,2.40
2024-01-20T13:12:08.053Z,2.40
2024-01-20T13:16:09.784Z,2.30
2024-01-20T13:20:12.417Z,2.40
2024-01-20T13:24:13.993Z,2.00
2024-01-20T13:28:17.362Z,1.90
2024-01-20T13:32:18.941Z,2.10
2024-01-20T13:36:20.348Z,2.20
2024-01-20T13:40:21.630Z,2.00
2024-01-20T13:44:23.514Z,2.10
2024-01-20T13:48:25.541Z,1.90
2024-01-20T13:52:26.992Z,2.20
2024-01-20T13:56:28.707Z,3.50
2024-01-20T14:00:30.628Z,5.70
2024-01-20T14:04:31.975Z,5.00
2024-01-20T14:08:33.903Z,4.20
2024-01-20T14:12:36.040Z,3.60
2024-01-20T14:16:37.448Z,3.10
2024-01-20T14:20:38.751Z,3.00
2024-01-20T14:24:40.176Z,2.70
2024-01-20T14:28:41.518Z,2.60
2024-01-20T14:32:42.958Z,2.50
2024-01-20T14:36:46.206Z,2.40
2024-01-20T14:40:47.506Z,2.20
2024-01-20T14:44:48.881Z,2.10
2024-01-20T14:48:50.320Z,2.00
2024-01-20T14:52:51.811Z,1.90
2024-01-20T14:56:53.032Z,1.90
2024-01-20T15:00:54.512Z,1.70
2024-01-20T15:04:55.952Z,1.50
2024-01-20T15:08:57.663Z,1.70
2024-01-20T15:12:59.480Z,1.60
2024-01-20T15:17:00.883Z,1.60
2024-01-20T15:21:02.415Z,1.50
2024-01-20T15:25:04.677Z,1.40
2024-01-20T15:29:06.116Z,1.30
2024-01-20T15:33:09.409Z,1.40
2024-01-20T15:37:10.974Z,1.30
2024-01-20T15:41:12.269Z,1.10
2024-01-20T15:45:13.757Z,1.10
2024-01-20T15:49:17.032Z,1.10
2024-01-20T15:53:18.489Z,1.10
2024-01-20T15:57:19.831Z,1.10
2024-01-20T16:01:23.881Z,1.00
2024-01-20T16:05:24.300Z,0.70
2024-01-20T16:09:25.817Z,0.70
2024-01-20T16:13:27.143Z,0.60
2024-01-20T16:17:28.700Z,0.30
2024-01-20T16:21:31.621Z,0.40
2024-01-20T16:25:33.080Z,0.60
2024-01-20T16:29:34.502Z,0.60
2024-01-20T16:33:35.991Z,0.70
2024-01-20T16:37:37.579Z,0.50
2024-01-20T16:41:39.282Z,0.50
2024-01-20T16:45:40.792Z,0.50
2024-01-20T16:49:42.654Z,0.60
2024-01-20T16:53:44.168Z,0.60
2024-01-20T16:57:47.763Z,0.40
2024-01-20T17:01:49.209Z,0.40
2024-01-20T17:05:50.605Z,0.50
2024-01-20T17:09:52.241Z,0.40
2024-01-20T17:13:53.699Z,0.30
2024-01-20T17:17:55.142Z,0.10
2024-01-20T17:21:56.687Z,-0.20
2024-01-20T17:25:58.157Z,-0.10
2024-01-20T17:29:59.713Z,0.10
2024-01-20T17:34:03.686Z,0.00
2024-01-20T17:38:05.219Z,-0.10
2024-01-20T17:42:08.495Z,0.10
2024-01-20T17:46:11.067Z,0.40
2024-01-20T17:50:14.316Z,0.40
2024-01-20T17:54:16.678Z,0.40
2024-01-20T17:58:19.629Z,0.30
2024-01-20T18:02:21.255Z,0.20
2024-01-20T18:06:22.853Z,0.20
2024-01-20T18:10:24.382Z,0.20
2024-01-20T18:14:26.415Z,0.30
2024-01-20T18:18:27.822Z,0.20
2024-01-20T18:22:29.418Z,0.10
2024-01-20T18:26:32.009Z,0.20
2024-01-20T18:30:34.568Z,0.20
2024-01-20T18:34:37.415Z,-0.10
2024-01-20T18:38:39.169Z,-0.10
2024-01-20T18:42:41.678Z,-0.10
2024-01-20T18:46:43.048Z,-0.40
2024-01-20T18:50:45.409Z,-0.40
2024-01-20T18:54:47.556Z,-0.30
2024-01-20T18:58:48.920Z,-0.30
2024-01-20T19:02:52.200Z,-0.30
2024-01-20T19:06:53.856Z,-0.30
2024-01-20T19:10:55.538Z,-0.40
2024-01-20T19:15:00.742Z,-0.50
2024-01-20T19:19:02.518Z,-0.60
2024-01-20T19:23:05.354Z,-0.60
2024-01-20T19:27:08.639Z,-0.50
2024-01-20T19:31:10.142Z,-0.40
2024-01-20T19:35:11.555Z,-0.40
2024-01-20T19:39:13.471Z,-0.30
2024-01-20T19:43:15.158Z,-0.30
2024-01-20T19:47:16.489Z,-0.30
2024-01-20T19:51:17.826Z,-0.40
2024-01-20T19:55:20.401Z,-0.40
2024-01-20T19:59:21.772Z,-0.20
2024-01-20T20:03:23.255Z,-0.20
2024-01-20T20:07:24.685Z,-0.30
2024-01-20T20:11:25.977Z,-0.20
2024-01-20T20:15:27.690Z,-0.10
2024-01-20T20:19:29.238Z,-0.10
2024-01-20T20:23:30.778Z,-0.40
2024-01-20T20:27:32.291Z,-0.40
2024-01-20T20:31:33.826Z,-0.30
2024-01-20T20:35:35.953Z,-0.40
2024-01-20T20:39:38.900Z,-0.50
2024-01-20T20:47:41.474Z,-0.40
2024-01-20T20:51:42.815Z,-0.30
2024-01-20T20:55:44.150Z,-0.50
2024-01-20T20:59:46.001Z,-0.40
2024-01-20T21:03:47.709Z,-0.60
2024-01-20T21:07:49.147Z,-0.60
2024-01-20T21:11:51.792Z,-0.80
2024-01-20T21:15:54.367Z,-0.90
2024-01-20T21:19:56.520Z,-0.80
2024-01-20T21:23:58.933Z,-0.90
2024-01-20T21:28:01.249Z,-1.10
2024-01-20T21:32:04.290Z,-1.10
2024-01-20T21:36:08.341Z,-1.10
2024-01-20T21:40:10.657Z,-1.20
2024-01-20T21:44:14.183Z,-1.30
2024-01-20T21:48:15.604Z,-1.30
2024-01-20T21:52:17.997Z,-1.20
2024-01-20T21:56:21.155Z,-1.20
2024-01-20T22:00:24.280Z,-1.30
2024-01-20T22:04:26.870Z,-1.50
2024-01-20T22:08:29.595Z,-1.60
2024-01-20T22:12:32.771Z,-1.40
2024-01-20T22:16:36.425Z,-1.40
2024-01-20T22:20:40.254Z,-1.20
2024-01-20T22:24:44.852Z,-1.10
2024-01-20T22:28:48.647Z,-1.30
2024-01-20T22:32:54.285Z,-1.30
2024-01-20T22:36:58.170Z,-1.40
2024-01-20T22:41:01.471Z,-1.50
2024-01-20T22:45:05.874Z,-1.50
2024-01-20T22:49:09.969Z,-1.50
2024-01-20T22:53:15.568Z,-1.50
2024-01-20T22:57:21.286Z,-1.50
2024-01-20T23:01:24.457Z,-1.50
2024-01-20T23:05:26.977Z,-1.50
2024-01-20T23:09:29.107Z,-1.40
2024-01-20T23:13:32.209Z,-1.40
2024-01-20T23:17:34.590Z,-1.50
2024-01-20T23:21:37.217Z,-1.60
2024-01-20T23:25:38.837Z,-1.70
2024-01-20T23:29:41.418Z,-1.70
2024-01-20T23:33:43.309Z,-1.60
2024-01-20T23:37:45.712Z,-1.80
2024-01-20T23:41:47.554Z,-1.90
2024-01-20T23:45:50.135Z,-2.10
2024-01-20T23:49:52.513Z,-2.10
2024-01-20T23:53:55.724Z,-2.00
2024-01-20T23:57:57.665Z,-2.00
